Time;durP1;ratioP1;P1;durP2;ratioP2;P2;SDS_P1;SDS_P2;PMS_P1;PMS_P2;Temp;Humidity;BMP_temperature;BMP_pressure;BME280_temperature;BME280_humidity;BME280_pressure;Samples;Min_cycle;Max_cycle;Signal;HPM_P1;HPM_P2
2022/10/31 00:02:10;;;;;;;26.52;20.63;;;;;;;9.52;100.00;100330.09;10446957;28;20041;-70
2022/10/31 00:07:12;;;;;;;23.27;21.05;;;;;;;9.82;100.00;100328.50;10464849;28;20079;-71
2022/10/31 00:12:14;;;;;;;22.05;19.77;;;;;;;9.41;100.00;100336.47;10463918;28;20502;-71
2022/10/31 00:17:16;;;;;;;26.25;20.40;;;;;;;9.62;100.00;100343.88;10463033;28;20053;-72
2022/10/31 00:22:18;;;;;;;21.52;19.60;;;;;;;9.34;100.00;100341.88;10465144;28;20041;-71
2022/10/31 00:27:19;;;;;;;24.73;20.13;;;;;;;9.66;100.00;100352.53;10463991;28;20079;-73
2022/10/31 00:32:21;;;;;;;21.35;19.27;;;;;;;9.59;100.00;100349.16;10465248;28;20079;-71
2022/10/31 00:37:23;;;;;;;26.02;19.77;;;;;;;9.59;100.00;100350.03;10462447;28;20049;-71
2022/10/31 00:42:25;;;;;;;21.17;19.25;;;;;;;9.08;100.00;100352.91;10463139;28;20049;-71
2022/10/31 00:47:27;;;;;;;25.27;19.55;;;;;;;9.49;100.00;100352.91;10461555;28;20052;-71
2022/10/31 00:52:28;;;;;;;23.95;18.77;;;;;;;9.07;100.00;100347.66;10460868;28;20045;-71
2022/10/31 00:57:31;;;;;;;31.83;19.20;;;;;;;9.31;100.00;100346.31;10461865;28;20036;-71
2022/10/31 01:02:32;;;;;;;21.17;19.00;;;;;;;8.97;100.00;100361.88;10460568;28;20048;-71
2022/10/31 01:07:39;;;;;;;20.75;18.67;;;;;;;9.07;100.00;100355.53;10462111;28;20037;-71
2022/10/31 01:12:45;;;;;;;18.38;16.50;;;;;;;9.01;100.00;100369.66;10460635;28;20041;-71
2022/10/31 01:17:48;;;;;;;19.77;17.13;;;;;;;9.07;100.00;100366.03;10461666;28;20045;-71
2022/10/31 01:22:50;;;;;;;18.13;16.33;;;;;;;8.95;100.00;100363.66;10461119;28;20060;-71
2022/10/31 01:27:51;;;;;;;17.65;15.50;;;;;;;9.12;100.00;100361.56;10459426;28;20136;-71
2022/10/31 01:32:53;;;;;;;20.25;16.15;;;;;;;8.86;100.00;100367.34;10459200;28;20053;-71
2022/10/31 01:37:54;;;;;;;23.20;17.10;;;;;;;9.10;100.00;100358.09;10459116;28;20049;-71
2022/10/31 01:42:56;;;;;;;22.17;16.58;;;;;;;8.87;100.00;100368.19;10460569;28;20111;-71
2022/10/31 01:47:58;;;;;;;23.15;16.65;;;;;;;8.70;100.00;100360.66;10461079;28;20037;-71
2022/10/31 01:53:02;;;;;;;18.80;16.83;;;;;;;8.72;100.00;100362.38;10461467;28;20090;-71
2022/10/31 01:58:11;;;;;;;18.33;16.63;;;;;;;8.46;100.00;100361.97;10459367;28;20075;-70
2022/10/31 02:03:13;;;;;;;17.23;15.75;;;;;;;8.62;100.00;100370.41;10460347;28;20041;-71
2022/10/31 02:08:23;;;;;;;21.33;16.05;;;;;;;8.89;100.00;100369.00;10458971;28;20086;-72
2022/10/31 02:13:27;;;;;;;27.02;16.52;;;;;;;8.65;100.00;100371.22;10459566;28;20045;-70
2022/10/31 02:18:30;;;;;;;18.92;14.98;;;;;;;8.80;100.00;100370.06;10459379;28;20045;-71
2022/10/31 02:23:53;;;;;;;22.80;15.57;;;;;;;8.57;100.00;100362.63;10460146;28;20492;-72
2022/10/31 02:29:17;;;;;;;21.05;15.60;;;;;;;8.81;100.00;100377.91;10457951;28;20518;-71
2022/10/31 02:34:23;;;;;;;15.85;13.98;;;;;;;8.51;100.00;100379.34;10457245;28;20044;-71
2022/10/31 02:39:47;;;;;;;17.25;14.90;;;;;;;8.30;100.00;100382.28;10457034;28;20148;-71
2022/10/31 02:45:07;;;;;;;17.98;15.15;;;;;;;8.70;100.00;100371.13;10458168;28;20075;-71
2022/10/31 02:50:15;;;;;;;15.45;13.98;;;;;;;8.34;100.00;100390.06;10456534;28;20135;-70
2022/10/31 02:55:26;;;;;;;21.42;14.63;;;;;;;8.18;100.00;100388.59;10440033;28;20045;-70
2022/10/31 03:00:42;;;;;;;15.98;14.45;;;;;;;8.62;100.00;100389.59;10457190;28;20049;-70
2022/10/31 03:06:03;;;;;;;19.00;14.95;;;;;;;8.64;100.00;100389.59;10456854;28;20045;-71
2022/10/31 03:11:09;;;;;;;20.10;15.52;;;;;;;8.65;100.00;100394.81;10458636;28;20041;-71
2022/10/31 03:16:17;;;;;;;16.58;14.55;;;;;;;8.22;100.00;100389.41;10456832;28;20049;-71
2022/10/31 03:21:30;;;;;;;17.52;15.75;;;;;;;8.04;100.00;100387.94;10459792;28;20047;-72
2022/10/31 03:26:37;;;;;;;24.85;16.05;;;;;;;8.34;100.00;100391.81;10464757;28;20049;-70
2022/10/31 03:31:46;;;;;;;26.03;16.50;;;;;;;8.41;100.00;100401.34;10465324;28;20029;-71
2022/10/31 03:36:54;;;;;;;20.17;14.80;;;;;;;8.22;100.00;100395.50;10463725;28;20132;-72
2022/10/31 03:42:02;;;;;;;16.58;15.02;;;;;;;8.26;100.00;100410.28;10463611;28;20041;-71
2022/10/31 03:47:04;;;;;;;17.00;14.77;;;;;;;7.94;100.00;100405.56;10463194;28;20136;-71
2022/10/31 03:52:24;;;;;;;17.75;15.88;;;;;;;7.94;100.00;100404.69;10462986;28;20052;-71
2022/10/31 03:57:31;;;;;;;16.40;15.00;;;;;;;8.16;100.00;100408.72;10464244;28;20490;-70
2022/10/31 04:02:41;;;;;;;18.05;14.85;;;;;;;8.11;100.00;100407.06;10463215;28;20490;-72
2022/10/31 04:07:46;;;;;;;18.63;14.60;;;;;;;7.89;100.00;100412.63;10464026;28;20041;-71
2022/10/31 04:12:53;;;;;;;17.63;13.90;;;;;;;8.04;100.00;100416.75;10462242;28;20040;-70
2022/10/31 04:17:59;;;;;;;18.75;16.85;;;;;;;8.16;100.00;100413.09;10462127;28;20072;-71
2022/10/31 04:23:03;;;;;;;15.98;14.38;;;;;;;7.82;100.00;100409.22;10462473;28;20055;-71
2022/10/31 04:28:05;;;;;;;15.88;14.43;;;;;;;7.86;100.00;100420.50;10461476;28;20061;-72
2022/10/31 04:33:07;;;;;;;16.10;14.63;;;;;;;7.65;100.00;100418.19;10461769;28;20086;-71
2022/10/31 04:38:09;;;;;;;21.40;16.25;;;;;;;7.89;100.00;100423.09;10461280;28;20593;-71
2022/10/31 04:43:12;;;;;;;17.83;16.17;;;;;;;8.00;100.00;100420.28;10444688;28;20095;-70
2022/10/31 04:48:17;;;;;;;18.80;15.45;;;;;;;7.79;100.00;100416.22;10461263;28;20135;-72
2022/10/31 04:53:19;;;;;;;16.70;15.00;;;;;;;7.71;100.00;100421.59;10460966;28;20052;-71
2022/10/31 04:58:52;;;;;;;16.30;14.75;;;;;;;7.70;100.00;100424.22;10472431;28;20060;-72
2022/10/31 05:03:56;;;;;;;17.23;15.48;;;;;;;7.78;100.00;100422.34;10460584;28;20049;-72
2022/10/31 05:08:58;;;;;;;17.35;15.68;;;;;;;7.85;100.00;100424.00;10462202;28;20048;-71
2022/10/31 05:14:00;;;;;;;16.52;14.93;;;;;;;7.83;100.00;100425.78;10505587;22;20094;-70
2022/10/31 05:19:24;;;;;;;17.15;15.35;;;;;;;7.89;100.00;100425.69;10500632;28;20128;-70
2022/10/31 05:24:54;;;;;;;15.68;14.13;;;;;;;7.48;100.00;100429.75;10501047;28;20048;-69
2022/10/31 05:29:56;;;;;;;15.50;14.07;;;;;;;7.69;100.00;100427.72;10500268;28;20362;-69
2022/10/31 05:34:58;;;;;;;16.08;14.77;;;;;;;7.74;100.00;100433.75;10499448;28;20064;-69
2022/10/31 05:40:23;;;;;;;17.52;13.75;;;;;;;7.39;100.00;100437.69;10500019;28;20383;-68
2022/10/31 05:45:24;;;;;;;15.10;13.73;;;;;;;7.38;100.00;100441.19;10500510;28;20052;-68
2022/10/31 05:50:31;;;;;;;17.67;14.57;;;;;;;7.49;100.00;100446.31;10500410;28;20052;-68
2022/10/31 05:55:51;;;;;;;18.65;14.02;;;;;;;7.41;100.00;100446.41;10498568;28;20090;-68
2022/10/31 06:00:55;;;;;;;14.65;13.27;;;;;;;7.42;100.00;100445.50;10498945;28;20482;-68
2022/10/31 06:05:57;;;;;;;18.13;13.80;;;;;;;7.48;100.00;100449.78;10499844;28;20576;-68
2022/10/31 06:11:04;;;;;;;15.60;14.20;;;;;;;7.45;100.00;100450.72;10499135;28;20071;-68
2022/10/31 06:16:24;;;;;;;16.05;14.43;;;;;;;7.46;100.00;100456.81;10500809;28;20543;-68
2022/10/31 06:21:29;;;;;;;14.68;13.15;;;;;;;7.48;100.00;100468.09;10498714;28;20052;-69
2022/10/31 06:26:31;;;;;;;14.70;12.88;;;;;;;7.37;100.00;100464.75;10498912;28;20045;-69
2022/10/31 06:31:33;;;;;;;14.60;13.30;;;;;;;7.57;100.00;100475.88;10500494;28;20467;-69
2022/10/31 06:36:34;;;;;;;15.27;13.77;;;;;;;7.56;100.00;100479.34;10500667;28;20098;-68
2022/10/31 06:41:39;;;;;;;14.27;13.10;;;;;;;7.53;100.00;100482.00;10498102;28;20460;-69
2022/10/31 06:46:41;;;;;;;14.90;13.57;;;;;;;7.76;100.00;100492.19;10497778;28;20094;-69
2022/10/31 06:52:01;;;;;;;17.40;14.13;;;;;;;7.66;100.00;100490.56;10498556;28;20125;-69
2022/10/31 06:57:03;;;;;;;15.20;13.68;;;;;;;8.02;100.00;100495.31;10499088;28;20056;-70
2022/10/31 07:02:09;;;;;;;15.13;13.88;;;;;;;8.03;100.00;100493.56;10498125;28;20510;-70
2022/10/31 07:07:12;;;;;;;17.08;15.70;;;;;;;8.00;100.00;100498.84;10497878;28;20054;-69
2022/10/31 07:12:16;;;;;;;15.23;13.88;;;;;;;8.20;100.00;100503.81;10498850;28;20037;-69
2022/10/31 07:17:27;;;;;;;15.70;14.50;;;;;;;8.23;100.00;100515.06;10498691;28;20115;-70
2022/10/31 07:22:37;;;;;;;15.95;14.57;;;;;;;8.39;100.00;100514.91;10496849;28;20051;-69
2022/10/31 07:27:42;;;;;;;17.10;15.05;;;;;;;8.46;100.00;100520.03;10496669;28;20095;-69
2022/10/31 07:32:50;;;;;;;16.15;14.85;;;;;;;8.56;100.00;100521.59;10498596;28;20040;-69
2022/10/31 07:37:54;;;;;;;16.77;15.13;;;;;;;8.82;100.00;100521.19;10498692;28;20046;-68
2022/10/31 07:42:57;;;;;;;16.55;14.50;;;;;;;8.86;100.00;100527.25;10499286;28;20039;-69
2022/10/31 07:48:25;;;;;;;16.00;13.95;;;;;;;8.94;100.00;100529.72;10497226;28;20117;-69
2022/10/31 07:53:45;;;;;;;14.95;13.52;;;;;;;9.09;100.00;100529.47;10498650;28;20048;-69
2022/10/31 07:58:56;;;;;;;14.60;13.15;;;;;;;9.42;100.00;100521.84;10496941;28;20135;-69
2022/10/31 08:03:58;;;;;;;15.13;13.80;;;;;;;9.48;100.00;100532.25;10499531;28;20121;-69
2022/10/31 08:09:18;;;;;;;14.70;13.30;;;;;;;9.57;100.00;100532.06;10502216;28;20045;-69
2022/10/31 08:14:19;;;;;;;13.23;11.80;;;;;;;9.71;100.00;100535.28;10503729;28;20048;-68
2022/10/31 08:19:21;;;;;;;13.35;12.23;;;;;;;9.96;100.00;100535.66;10505391;28;20045;-69
2022/10/31 08:24:24;;;;;;;12.27;11.35;;;;;;;10.00;100.00;100531.16;10506089;28;20135;-69
2022/10/31 08:29:28;;;;;;;11.75;10.65;;;;;;;10.28;100.00;100513.94;10505724;28;20135;-69
2022/10/31 08:34:30;;;;;;;10.75;9.65;;;;;;;10.48;100.00;100520.50;10505722;28;20094;-69
2022/10/31 08:40:08;;;;;;;9.25;8.38;;;;;;;10.57;100.00;100518.50;10394520;28;20082;-69
2022/10/31 08:45:09;;;;;;;10.07;8.20;;;;;;;10.70;100.00;100515.59;10471944;28;20099;-69
2022/10/31 08:50:11;;;;;;;8.13;7.35;;;;;;;10.93;100.00;100515.88;10460802;28;20055;-69
2022/10/31 08:55:13;;;;;;;9.40;7.25;;;;;;;11.13;100.00;100527.66;10470582;28;20036;-69
2022/10/31 09:00:34;;;;;;;7.30;6.70;;;;;;;11.85;98.72;100523.91;10468788;28;20057;-69
2022/10/31 09:05:45;;;;;;;6.85;6.35;;;;;;;11.71;99.10;100519.03;10461078;28;20037;-69
2022/10/31 09:10:47;;;;;;;7.10;6.50;;;;;;;11.82;100.00;100521.34;10445259;28;20056;-69
2022/10/31 09:15:57;;;;;;;7.35;6.65;;;;;;;11.85;100.00;100516.88;10460437;28;20076;-69
2022/10/31 09:20:59;;;;;;;7.95;7.07;;;;;;;12.01;99.01;100525.19;10459271;28;20422;-68
2022/10/31 09:26:08;;;;;;;6.90;6.20;;;;;;;12.58;94.13;100520.81;10460711;28;20037;-70
2022/10/31 09:31:36;;;;;;;6.60;5.88;;;;;;;12.93;91.27;100524.94;10450256;28;20059;-69
2022/10/31 09:36:59;;;;;;;6.72;6.13;;;;;;;12.86;93.65;100518.97;10458405;28;20395;-70
2022/10/31 09:42:44;;;;;;;8.23;6.38;;;;;;;13.33;89.27;100524.44;10458018;28;20048;-69
2022/10/31 09:48:06;;;;;;;7.60;6.00;;;;;;;13.70;87.49;100524.91;10458091;28;20053;-69
2022/10/31 09:53:21;;;;;;;6.80;6.18;;;;;;;13.59;89.21;100520.88;10460394;28;20040;-68
2022/10/31 09:58:26;;;;;;;6.53;5.88;;;;;;;13.95;84.41;100532.78;10457344;28;20049;-69
2022/10/31 10:03:34;;;;;;;7.78;5.90;;;;;;;13.92;86.26;100524.97;10456633;28;20049;-69
2022/10/31 10:08:45;;;;;;;9.00;6.30;;;;;;;14.21;84.56;100521.19;10458356;28;20043;-69
2022/10/31 10:14:26;;;;;;;9.35;5.50;;;;;;;14.35;83.28;100508.31;10457441;28;20045;-68
2022/10/31 10:20:13;;;;;;;8.07;5.68;;;;;;;15.70;76.17;100510.56;10456865;28;20123;-69
2022/10/31 10:25:33;;;;;;;7.53;6.10;;;;;;;16.61;70.89;100503.56;10443366;28;20056;-68
2022/10/31 10:30:46;;;;;;;8.32;5.32;;;;;;;16.89;69.89;100497.78;10455760;28;20049;-68
2022/10/31 10:35:52;;;;;;;7.70;5.30;;;;;;;17.40;69.05;100503.16;10458339;28;20055;-68
2022/10/31 10:40:54;;;;;;;9.38;5.45;;;;;;;17.12;68.44;100501.91;10457757;28;20079;-68
2022/10/31 10:51:47;;;;;;;7.68;5.60;;;;;;;18.88;61.02;100488.72;10457720;28;20049;-68
2022/10/31 10:57:26;;;;;;;8.23;5.70;;;;;;;18.81;60.99;100485.56;10456761;28;20506;-69
2022/10/31 11:02:32;;;;;;;6.55;4.90;;;;;;;19.16;61.59;100483.47;10457713;28;20445;-69
2022/10/31 11:07:40;;;;;;;7.75;5.13;;;;;;;19.90;57.21;100476.28;10457026;28;20493;-69
2022/10/31 11:12:56;;;;;;;5.45;4.95;;;;;;;20.89;54.22;100475.13;10471970;22;20094;-75
2022/10/31 11:17:58;;;;;;;5.78;4.15;;;;;;;20.85;54.37;100462.06;10419324;28;20080;-77
2022/10/31 11:23:18;;;;;;;7.03;5.10;;;;;;;20.81;54.85;100457.91;10421926;28;20037;-77
2022/10/31 11:28:20;;;;;;;7.88;5.43;;;;;;;20.85;55.12;100459.38;10424276;28;20057;-76
2022/10/31 11:33:31;;;;;;;6.32;5.10;;;;;;;21.14;52.96;100444.91;10403357;28;20045;-76
2022/10/31 11:38:41;;;;;;;6.28;5.20;;;;;;;20.64;53.86;100443.00;10418878;28;20129;-77
2022/10/31 11:44:18;;;;;;;6.75;5.43;;;;;;;20.71;52.74;100443.44;10426391;28;20397;-77
2022/10/31 11:49:36;;;;;;;5.80;4.57;;;;;;;20.07;55.02;100432.50;10369105;28;20046;-77
2022/10/31 11:54:49;;;;;;;7.13;5.10;;;;;;;19.55;58.39;100417.97;10383317;28;20038;-76
2022/10/31 11:59:53;;;;;;;5.07;4.57;;;;;;;19.44;60.57;100408.97;10384274;28;20463;-77
2022/10/31 12:05:06;;;;;;;8.98;4.95;;;;;;;19.51;57.40;100405.78;10386963;28;20085;-77
2022/10/31 12:10:12;;;;;;;7.55;5.82;;;;;;;19.11;59.74;100405.59;10359450;28;20050;-77
2022/10/31 12:15:31;;;;;;;8.82;6.07;;;;;;;18.69;61.43;100400.19;10387439;28;20042;-77
2022/10/31 12:20:58;;;;;;;10.50;7.10;;;;;;;18.77;60.64;100393.50;10386495;28;20045;-77
2022/10/31 12:26:35;;;;;;;9.70;6.20;;;;;;;18.48;62.62;100392.53;10429182;28;20053;-77
2022/10/31 12:31:51;;;;;;;7.43;6.13;;;;;;;18.23;64.05;100382.44;10381771;28;20058;-77
2022/10/31 12:36:56;;;;;;;15.05;10.10;;;;;;;18.51;63.15;100380.84;10382564;28;20057;-76
2022/10/31 12:42:18;;;;;;;13.20;7.18;;;;;;;18.06;65.28;100378.13;10381740;28;20422;-77
2022/10/31 12:47:57;;;;;;;10.68;5.55;;;;;;;17.93;66.92;100369.13;10382130;28;20149;-77
2022/10/31 12:53:28;;;;;;;7.35;5.32;;;;;;;17.90;65.63;100363.97;10381567;28;20045;-76
2022/10/31 12:58:35;;;;;;;7.53;5.53;;;;;;;17.86;66.76;100351.78;10363924;28;20451;-77
2022/10/31 13:03:56;;;;;;;7.72;5.25;;;;;;;18.09;64.59;100361.97;10379602;28;20050;-76
2022/10/31 13:09:02;;;;;;;7.65;5.78;;;;;;;17.89;66.07;100347.16;10418890;28;20053;-77
2022/10/31 13:14:16;;;;;;;10.38;6.15;;;;;;;18.08;65.28;100338.97;10424775;28;20051;-78
2022/10/31 13:19:26;;;;;;;13.82;5.55;;;;;;;17.93;65.26;100336.31;10427690;28;20121;-78
2022/10/31 13:24:36;;;;;;;6.30;5.63;;;;;;;18.10;65.08;100333.53;10424305;28;20441;-76
2022/10/31 13:29:53;;;;;;;8.63;5.05;;;;;;;18.02;65.29;100328.69;10423861;28;20066;-77
2022/10/31 13:34:58;;;;;;;6.03;4.35;;;;;;;17.89;65.54;100323.22;10424165;28;20460;-77
2022/10/31 13:40:09;;;;;;;7.10;5.05;;;;;;;17.96;65.38;100322.84;10422346;28;20049;-77
2022/10/31 13:45:17;;;;;;;7.40;5.25;;;;;;;17.94;65.18;100324.75;10422697;28;20045;-77
2022/10/31 13:50:22;;;;;;;6.65;5.10;;;;;;;18.17;64.54;100320.75;10424883;28;20042;-77
2022/10/31 13:55:41;;;;;;;9.88;5.82;;;;;;;17.76;66.29;100313.38;10422515;28;20550;-77
2022/10/31 14:00:43;;;;;;;6.75;5.40;;;;;;;17.96;66.06;100314.88;10421512;28;20049;-77
2022/10/31 14:05:53;;;;;;;7.15;5.07;;;;;;;17.87;65.84;100306.47;10418574;28;20033;-76
2022/10/31 14:10:55;;;;;;;5.80;4.57;;;;;;;17.91;64.88;100299.19;10421309;28;20051;-77
2022/10/31 14:16:16;;;;;;;7.63;4.93;;;;;;;17.79;66.29;100298.09;10421662;28;20045;-77
2022/10/31 14:21:23;;;;;;;7.13;4.20;;;;;;;17.90;65.53;100285.03;10421456;28;20491;-78
2022/10/31 14:26:28;;;;;;;6.70;5.80;;;;;;;17.61;66.60;100281.34;10420539;28;20493;-77
2022/10/31 14:31:46;;;;;;;6.88;4.50;;;;;;;17.32;68.41;100283.00;10420391;28;20095;-77
2022/10/31 14:37:09;;;;;;;7.78;4.88;;;;;;;17.04;69.63;100267.72;10419925;28;20042;-77
2022/10/31 14:42:37;;;;;;;8.73;5.82;;;;;;;17.26;69.94;100266.53;10420563;28;20132;-78
2022/10/31 14:47:46;;;;;;;8.18;5.03;;;;;;;16.85;73.18;100259.03;10421387;28;20040;-77
2022/10/31 14:52:52;;;;;;;10.05;5.82;;;;;;;16.82;77.82;100264.50;10419648;28;20103;-77
2022/10/31 14:57:59;;;;;;;14.90;5.83;;;;;;;16.54;82.22;100268.63;10421551;28;20405;-76
2022/10/31 15:03:07;;;;;;;7.90;6.22;;;;;;;16.46;85.88;100248.72;10419096;28;20653;-77
2022/10/31 15:08:14;;;;;;;15.57;14.15;;;;;;;16.15;86.58;100259.13;10420207;28;20049;-77
2022/10/31 15:13:21;;;;;;;18.55;14.45;;;;;;;15.79;89.82;100253.03;10420413;28;20052;-77
2022/10/31 15:18:26;;;;;;;16.27;14.85;;;;;;;15.76;89.51;100253.19;10426793;28;20050;-76
2022/10/31 15:23:29;;;;;;;14.80;11.65;;;;;;;15.56;88.73;100247.06;10428252;28;20045;-77
2022/10/31 15:28:31;;;;;;;10.48;9.48;;;;;;;15.17;90.93;100241.88;10426577;28;20041;-78
2022/10/31 15:33:41;;;;;;;12.70;8.90;;;;;;;15.07;92.11;100236.16;10427392;28;20096;-77
2022/10/31 15:38:49;;;;;;;12.45;8.50;;;;;;;14.96;92.82;100235.78;10425748;28;20042;-77
2022/10/31 15:43:51;;;;;;;29.17;26.33;;;;;;;14.81;93.70;100239.16;10427648;28;20053;-76
2022/10/31 15:48:54;;;;;;;48.47;35.33;;;;;;;14.56;95.58;100226.19;10426558;28;20132;-77
2022/10/31 15:53:56;;;;;;;21.00;18.80;;;;;;;14.54;96.54;100220.13;10426214;28;20513;-77
2022/10/31 15:59:00;;;;;;;15.43;12.32;;;;;;;14.27;98.49;100215.09;10409630;28;20087;-77
2022/10/31 16:04:22;;;;;;;12.50;10.55;;;;;;;13.87;100.00;100210.69;10425125;28;20513;-77
2022/10/31 16:09:24;;;;;;;13.57;11.20;;;;;;;13.84;100.00;100201.09;10425342;28;20041;-77
2022/10/31 16:14:29;;;;;;;11.73;10.63;;;;;;;13.52;100.00;100205.09;10425709;28;20041;-76
2022/10/31 16:19:37;;;;;;;11.73;10.63;;;;;;;13.29;100.00;100206.03;10426095;28;20061;-76
2022/10/31 16:24:53;;;;;;;13.27;11.88;;;;;;;13.24;100.00;100213.28;10427075;28;20041;-77
2022/10/31 16:29:57;;;;;;;13.67;12.27;;;;;;;13.18;100.00;100215.25;10425260;28;20112;-78
2022/10/31 16:35:08;;;;;;;15.63;14.18;;;;;;;13.13;100.00;100207.50;10425277;28;20045;-76
2022/10/31 16:40:13;;;;;;;17.38;15.40;;;;;;;13.03;100.00;100204.38;10425003;28;20121;-76
2022/10/31 16:45:26;;;;;;;25.92;18.45;;;;;;;13.51;100.00;100207.78;10423883;28;20442;-76
2022/10/31 16:50:28;;;;;;;22.63;17.77;;;;;;;13.22;100.00;100207.19;10426468;28;20068;-76
2022/10/31 16:55:31;;;;;;;20.63;18.08;;;;;;;12.99;100.00;100207.19;10427592;28;20092;-76
2022/10/31 17:00:33;;;;;;;19.02;17.23;;;;;;;13.02;100.00;100207.09;10425121;28;20047;-77
2022/10/31 17:05:35;;;;;;;20.00;17.98;;;;;;;13.08;100.00;100201.56;10422751;28;20046;-77
2022/10/31 17:10:38;;;;;;;20.40;18.33;;;;;;;13.09;100.00;100200.63;10425238;28;20091;-77
2022/10/31 17:15:47;;;;;;;19.58;17.63;;;;;;;12.95;100.00;100203.81;10443615;28;20036;-77
2022/10/31 17:20:49;;;;;;;19.88;18.17;;;;;;;12.67;100.00;100192.63;10451683;22;20060;-73
2022/10/31 17:25:51;;;;;;;28.33;18.60;;;;;;;12.65;100.00;100194.44;10420717;28;20041;-74
2022/10/31 17:30:54;;;;;;;24.35;21.45;;;;;;;12.87;100.00;100192.69;10422326;28;20068;-74
2022/10/31 17:35:56;;;;;;;21.90;19.85;;;;;;;12.65;100.00;100192.66;10425449;28;20048;-73
2022/10/31 17:40:57;;;;;;;20.90;19.10;;;;;;;12.38;100.00;100181.34;10421178;28;20045;-74
2022/10/31 17:46:00;;;;;;;25.30;22.92;;;;;;;12.62;100.00;100183.09;10418668;28;20136;-74
2022/10/31 17:51:06;;;;;;;29.73;24.40;;;;;;;12.53;100.00;100177.31;10417900;28;20140;-73
2022/10/31 17:56:08;;;;;;;26.08;22.90;;;;;;;12.49;100.00;100170.44;10420613;28;20034;-73
2022/10/31 18:01:13;;;;;;;25.05;22.58;;;;;;;12.56;100.00;100182.44;10420486;28;20407;-72
2022/10/31 18:06:15;;;;;;;24.52;22.40;;;;;;;12.31;100.00;100175.47;10418325;28;20111;-73
2022/10/31 18:11:19;;;;;;;24.50;22.02;;;;;;;12.29;100.00;100168.53;10417721;28;20407;-74
2022/10/31 18:16:22;;;;;;;23.25;21.13;;;;;;;12.63;100.00;100183.94;10419821;28;20551;-73
2022/10/31 18:21:24;;;;;;;28.55;25.67;;;;;;;12.45;100.00;100171.47;10419913;28;20099;-75
2022/10/31 18:26:27;;;;;;;26.77;24.23;;;;;;;12.20;100.00;100172.34;10416962;28;20057;-73
2022/10/31 18:31:28;;;;;;;27.40;24.70;;;;;;;12.05;100.00;100168.50;10418768;28;20045;-72
2022/10/31 18:36:30;;;;;;;27.27;24.13;;;;;;;11.98;100.00;100160.84;10421860;28;20041;-73
2022/10/31 18:41:32;;;;;;;26.67;22.52;;;;;;;11.88;100.00;100148.94;10418053;28;20507;-73
2022/10/31 18:46:35;;;;;;;24.50;22.17;;;;;;;11.90;100.00;100157.63;10417815;28;20096;-73
2022/10/31 18:51:36;;;;;;;26.50;23.92;;;;;;;11.91;100.00;100151.44;10418567;28;20057;-72
2022/10/31 18:56:38;;;;;;;26.67;22.70;;;;;;;11.71;100.00;100155.59;10418647;28;20045;-73
2022/10/31 19:01:40;;;;;;;29.10;26.02;;;;;;;11.66;100.00;100148.78;10421043;28;20398;-73
2022/10/31 19:06:41;;;;;;;27.08;24.27;;;;;;;11.62;100.00;100143.63;10418825;28;20054;-73
2022/10/31 19:11:43;;;;;;;25.42;22.92;;;;;;;11.65;100.00;100150.56;10400684;28;20490;-71
2022/10/31 19:16:45;;;;;;;24.65;22.17;;;;;;;11.51;100.00;100143.13;10417277;28;20491;-73
2022/10/31 19:21:46;;;;;;;25.25;22.83;;;;;;;11.62;100.00;100140.97;10418912;28;20104;-73
2022/10/31 19:26:48;;;;;;;30.50;22.10;;;;;;;11.76;100.00;100131.75;10419382;28;20103;-73
2022/10/31 19:31:50;;;;;;;23.02;20.67;;;;;;;11.42;100.00;100122.41;10419210;28;20061;-73
2022/10/31 19:36:52;;;;;;;30.13;20.48;;;;;;;11.44;100.00;100130.22;10417064;28;20045;-74
2022/10/31 19:41:53;;;;;;;23.23;20.92;;;;;;;11.22;100.00;100119.56;10419344;28;20049;-73
2022/10/31 19:46:55;;;;;;;24.95;22.55;;;;;;;11.06;100.00;100122.66;10416825;28;20092;-74
2022/10/31 19:51:57;;;;;;;22.88;20.63;;;;;;;11.07;100.00;100113.91;10416845;28;20117;-74
2022/10/31 19:56:59;;;;;;;23.85;21.70;;;;;;;11.25;100.00;100112.44;10419059;28;20045;-73
2022/10/31 20:02:01;;;;;;;24.02;21.42;;;;;;;11.20;100.00;100098.56;10419429;28;20053;-74
2022/10/31 20:07:03;;;;;;;22.88;20.50;;;;;;;11.35;100.00;100094.56;10425684;28;20037;-72
2022/10/31 20:12:05;;;;;;;22.40;20.60;;;;;;;11.13;100.00;100098.81;10421843;28;20103;-73
2022/10/31 20:17:07;;;;;;;24.52;22.38;;;;;;;10.98;100.00;100098.41;10422585;28;20510;-74
2022/10/31 20:22:09;;;;;;;27.90;25.02;;;;;;;11.21;100.00;100084.50;10424958;28;20045;-75
2022/10/31 20:27:11;;;;;;;46.05;29.98;;;;;;;11.16;100.00;100091.69;10424340;28;20060;-74
2022/10/31 20:32:12;;;;;;;25.38;22.65;;;;;;;11.14;100.00;100095.25;10421618;28;20050;-74
2022/10/31 20:37:14;;;;;;;21.13;19.52;;;;;;;11.19;100.00;100083.66;10421578;28;20479;-73
2022/10/31 20:42:16;;;;;;;21.65;19.52;;;;;;;11.17;100.00;100076.75;10420164;28;20064;-73
2022/10/31 20:47:17;;;;;;;21.10;19.13;;;;;;;11.53;100.00;100072.84;10423519;28;20100;-73
2022/10/31 20:52:25;;;;;;;19.75;17.80;;;;;;;11.77;100.00;100065.84;10421763;28;20045;-73
2022/10/31 20:57:26;;;;;;;19.17;17.33;;;;;;;11.90;100.00;100053.13;10420979;28;20056;-73
2022/10/31 21:02:28;;;;;;;23.58;18.20;;;;;;;12.33;100.00;100040.97;10421259;28;20038;-73
2022/10/31 21:07:30;;;;;;;18.30;16.67;;;;;;;12.44;100.00;100045.81;10419985;28;20402;-72
2022/10/31 21:12:32;;;;;;;19.55;15.50;;;;;;;12.36;100.00;100051.41;10423362;28;20076;-73
2022/10/31 21:17:34;;;;;;;15.60;14.25;;;;;;;11.99;100.00;100044.03;10419629;28;20050;-73
2022/10/31 21:22:36;;;;;;;16.98;15.48;;;;;;;12.07;100.00;100034.91;10420186;28;20430;-73
2022/10/31 21:27:37;;;;;;;16.63;15.25;;;;;;;12.09;100.00;100034.88;10419811;28;20038;-72
2022/10/31 21:32:39;;;;;;;16.88;15.27;;;;;;;12.09;100.00;100046.28;10421818;28;20041;-73
2022/10/31 21:37:40;;;;;;;16.50;15.05;;;;;;;11.80;100.00;100036.78;10420321;28;20114;-73
2022/10/31 21:42:42;;;;;;;23.10;15.50;;;;;;;11.60;100.00;100026.13;10419802;28;20451;-73
2022/10/31 21:47:44;;;;;;;16.30;14.70;;;;;;;11.54;100.00;100023.69;10419709;28;20065;-73
2022/10/31 21:52:45;;;;;;;16.08;14.60;;;;;;;11.45;100.00;100016.13;10419587;28;20045;-73
2022/10/31 21:57:47;;;;;;;17.27;15.75;;;;;;;11.35;100.00;100015.59;10419368;28;20537;-73
2022/10/31 22:02:48;;;;;;;16.77;15.25;;;;;;;11.31;100.00;100000.81;10419830;28;20045;-73
2022/10/31 22:07:50;;;;;;;17.08;15.35;;;;;;;11.29;100.00;99990.38;10417454;28;20049;-72
2022/10/31 22:12:51;;;;;;;17.88;16.15;;;;;;;11.18;100.00;99981.97;10416659;28;20049;-73
2022/10/31 22:17:53;;;;;;;17.55;15.82;;;;;;;11.14;100.00;99988.25;10418718;28;20042;-72
2022/10/31 22:22:55;;;;;;;17.05;15.65;;;;;;;11.11;100.00;99983.09;10418283;28;20042;-73
2022/10/31 22:27:56;;;;;;;20.42;17.90;;;;;;;11.24;100.00;99991.41;10415303;28;20075;-73
2022/10/31 22:32:58;;;;;;;19.42;17.63;;;;;;;11.18;100.00;99984.59;10419432;28;20100;-72
2022/10/31 22:38:00;;;;;;;21.33;19.23;;;;;;;11.22;100.00;99961.69;10418804;28;20044;-73
2022/10/31 22:43:02;;;;;;;23.98;21.88;;;;;;;11.23;100.00;99971.28;10418438;28;20064;-73
2022/10/31 22:48:04;;;;;;;25.52;22.90;;;;;;;11.61;100.00;99954.97;10419291;28;20038;-73
2022/10/31 22:53:06;;;;;;;25.13;23.13;;;;;;;11.48;100.00;99950.22;10418642;28;20061;-73
2022/10/31 22:58:08;;;;;;;25.80;23.52;;;;;;;11.36;100.00;99946.25;10417966;28;20139;-73
2022/10/31 23:03:12;;;;;;;25.77;23.33;;;;;;;11.23;100.00;99944.97;10420620;28;20466;-74
2022/10/31 23:08:17;;;;;;;27.83;24.88;;;;;;;11.24;100.00;99937.03;10418899;28;20583;-72
2022/10/31 23:18:39;;;;;;;29.17;26.33;;;;;;;11.77;100.00;99928.03;10438595;22;20048;-72